Time;durP1;ratioP1;P1;durP2;ratioP2;P2;SDS_P1;SDS_P2;PMS_P1;PMS_P2;Temp;Humidity;BMP_temperature;BMP_pressure;BME280_temperature;BME280_humidity;BME280_pressure;Samples;Min_cycle;Max_cycle;Signal;HPM_P1;HPM_P2
2023/05/08 00:01:54;;;;;;;5.40;3.10;;;;;;;;;;5048009;28;20036;-81
2023/05/08 00:04:19;;;;;;;5.60;3.25;;;;;;;;;;5051719;28;20412;-81
2023/05/08 00:06:45;;;;;;;5.32;3.05;;;;;;;;;;5051839;28;20033;-81
2023/05/08 00:09:11;;;;;;;4.88;3.50;;;;;;;;;;5043019;28;20160;-81
2023/05/08 00:11:37;;;;;;;5.22;2.90;;;;;;;;;;5054571;28;20456;-81
2023/05/08 00:14:02;;;;;;;4.93;3.13;;;;;;;;;;5053618;28;20045;-81
2023/05/08 00:16:27;;;;;;;5.22;3.15;;;;;;;;;;5054683;28;20049;-81
2023/05/08 00:18:53;;;;;;;5.85;3.08;;;;;;;;;;5056226;28;20120;-80
2023/05/08 00:21:19;;;;;;;5.05;2.90;;;;;;;;;;5040089;28;20400;-81
2023/05/08 00:23:44;;;;;;;5.32;2.80;;;;;;;;;;5040290;28;20033;-81
2023/05/08 00:26:10;;;;;;;5.30;3.17;;;;;;;;;;5053895;28;20040;-81
2023/05/08 00:28:35;;;;;;;5.45;3.25;;;;;;;;;;5054660;28;20044;-81
2023/05/08 00:31:01;;;;;;;6.40;3.17;;;;;;;;;;5038702;28;20046;-81
2023/05/08 00:33:26;;;;;;;4.50;2.80;;;;;;;;;;5051247;28;20052;-81
2023/05/08 00:35:58;;;;;;;5.95;3.25;;;;;;;;;;5057074;28;20033;-80
2023/05/08 00:38:23;;;;;;;6.63;3.08;;;;;;;;;;5054673;28;20728;-81
2023/05/08 00:40:49;;;;;;;5.35;2.90;;;;;;;;;;5054127;28;20030;-81
2023/05/08 00:43:14;;;;;;;5.65;3.10;;;;;;;;;;5059175;28;20041;-81
2023/05/08 00:45:40;;;;;;;5.45;3.20;;;;;;;;;;5052724;28;20404;-81
2023/05/08 00:48:06;;;;;;;5.53;3.10;;;;;;;;;;5053558;28;20045;-81
2023/05/08 00:50:31;;;;;;;5.15;3.00;;;;;;;;;;5054732;28;20115;-81
2023/05/08 00:52:57;;;;;;;5.22;3.15;;;;;;;;;;5053535;28;20560;-81
2023/05/08 00:55:23;;;;;;;4.78;2.90;;;;;;;;;;5045659;28;20039;-80
2023/05/08 00:57:49;;;;;;;5.97;3.28;;;;;;;;;;5052539;28;20438;-81
2023/05/08 01:00:16;;;;;;;5.95;3.67;;;;;;;;;;5055207;28;20036;-81
2023/05/08 01:02:42;;;;;;;4.85;2.88;;;;;;;;;;5040906;28;20037;-81
2023/05/08 01:05:08;;;;;;;5.85;3.05;;;;;;;;;;5039782;28;20082;-81
2023/05/08 01:07:33;;;;;;;5.43;3.25;;;;;;;;;;5050129;28;20041;-81
2023/05/08 01:09:58;;;;;;;5.22;3.30;;;;;;;;;;5053749;28;20032;-81
2023/05/08 01:12:42;;;;;;;5.97;3.67;;;;;;;;;;5053894;28;20542;-80
2023/05/08 01:15:15;;;;;;;4.85;2.75;;;;;;;;;;5068312;28;20121;-81
2023/05/08 01:17:49;;;;;;;6.00;3.40;;;;;;;;;;5053587;28;20040;-81
2023/05/08 01:20:52;;;;;;;5.30;3.25;;;;;;;;;;5051874;28;20033;-81
2023/05/08 01:23:33;;;;;;;8.02;4.10;;;;;;;;;;5053976;28;20411;-82
2023/05/08 01:26:15;;;;;;;5.80;3.33;;;;;;;;;;5053236;28;20029;-82
2023/05/08 01:29:00;;;;;;;5.72;3.28;;;;;;;;;;5051306;28;20037;-82
2023/05/08 01:31:46;;;;;;;6.25;3.33;;;;;;;;;;5052189;28;20074;-82
2023/05/08 01:34:20;;;;;;;6.10;3.70;;;;;;;;;;5055832;28;20060;-82
2023/05/08 01:36:57;;;;;;;6.50;3.58;;;;;;;;;;5048766;28;20784;-82
2023/05/08 01:39:29;;;;;;;5.50;3.50;;;;;;;;;;5053377;28;20493;-80
2023/05/08 01:42:08;;;;;;;6.40;3.70;;;;;;;;;;5050987;28;20033;-82
2023/05/08 01:44:40;;;;;;;5.93;3.50;;;;;;;;;;5052852;28;20037;-81
2023/05/08 01:47:06;;;;;;;5.80;3.40;;;;;;;;;;5051940;28;20511;-81
2023/05/08 01:49:56;;;;;;;7.03;3.47;;;;;;;;;;5053930;28;20045;-81
2023/05/08 01:52:28;;;;;;;4.95;3.15;;;;;;;;;;5054073;28;20036;-82
2023/05/08 01:55:00;;;;;;;6.05;3.47;;;;;;;;;;5050664;28;20068;-81
2023/05/08 01:57:28;;;;;;;5.93;3.60;;;;;;;;;;5053103;28;20581;-81
2023/05/08 01:59:55;;;;;;;5.25;3.33;;;;;;;;;;5033636;28;20162;-81
2023/05/08 02:02:21;;;;;;;5.40;3.42;;;;;;;;;;5051985;28;20032;-81
2023/05/08 02:04:48;;;;;;;6.38;3.60;;;;;;;;;;5061281;28;20060;-81
2023/05/08 02:07:14;;;;;;;6.70;3.80;;;;;;;;;;5047588;28;20035;-81
2023/05/08 02:09:41;;;;;;;6.18;3.60;;;;;;;;;;5055878;28;20056;-81
2023/05/08 02:12:06;;;;;;;6.50;3.50;;;;;;;;;;5035207;28;20476;-81
2023/05/08 02:14:32;;;;;;;6.60;3.65;;;;;;;;;;5050869;28;20132;-81
2023/05/08 02:16:58;;;;;;;5.80;3.70;;;;;;;;;;5060312;28;20037;-81
2023/05/08 02:19:25;;;;;;;5.72;3.38;;;;;;;;;;5060937;28;20044;-81
2023/05/08 02:21:50;;;;;;;6.68;3.83;;;;;;;;;;5060212;28;20472;-82
2023/05/08 02:24:16;;;;;;;6.75;4.18;;;;;;;;;;5061219;28;20107;-82
2023/05/08 02:26:43;;;;;;;6.65;3.60;;;;;;;;;;5049952;28;20492;-81
2023/05/08 02:29:08;;;;;;;6.45;3.90;;;;;;;;;;5057232;28;20511;-82
2023/05/08 02:31:35;;;;;;;5.63;3.60;;;;;;;;;;5042387;28;20049;-81
2023/05/08 02:34:01;;;;;;;6.15;3.83;;;;;;;;;;5050874;28;20504;-81
2023/05/08 02:36:27;;;;;;;6.35;3.80;;;;;;;;;;5051764;28;20500;-82
2023/05/08 02:38:55;;;;;;;5.82;3.65;;;;;;;;;;5044849;28;20044;-81
2023/05/08 02:41:24;;;;;;;;;;;;;;;;;;5042701;28;20557;-82
2023/05/08 02:43:50;;;;;;;6.57;3.67;;;;;;;;;;5061150;28;19948;-82
2023/05/08 02:46:49;;;;;;;8.03;3.87;;;;;;;;;;5050467;28;20066;-82
2023/05/08 02:49:27;;;;;;;5.57;3.55;;;;;;;;;;5015494;28;20060;-82
2023/05/08 02:52:12;;;;;;;6.32;3.83;;;;;;;;;;5050893;28;20037;-82
2023/05/08 02:55:05;;;;;;;7.57;3.90;;;;;;;;;;5053170;28;20044;-82
2023/05/08 02:57:34;;;;;;;6.93;4.53;;;;;;;;;;5049368;28;20041;-81
2023/05/08 03:00:08;;;;;;;6.20;3.70;;;;;;;;;;5052406;28;20037;-81
2023/05/08 03:02:33;;;;;;;6.32;3.72;;;;;;;;;;5051186;28;20133;-82
2023/05/08 03:05:03;;;;;;;6.40;3.88;;;;;;;;;;5066514;28;20508;-81
2023/05/08 03:07:29;;;;;;;7.72;4.25;;;;;;;;;;5051121;28;20123;-81
2023/05/08 03:10:02;;;;;;;7.45;4.20;;;;;;;;;;5044765;28;20430;-82
2023/05/08 03:12:29;;;;;;;7.10;4.20;;;;;;;;;;5021298;28;20037;-82
2023/05/08 03:15:41;;;;;;;6.10;4.18;;;;;;;;;;5033556;28;20057;-82
2023/05/08 03:18:08;;;;;;;8.48;4.10;;;;;;;;;;5005503;28;20055;-82
2023/05/08 03:20:37;;;;;;;6.43;3.90;;;;;;;;;;5033780;28;20032;-82
2023/05/08 03:23:03;;;;;;;7.95;4.05;;;;;;;;;;5050580;28;20039;-82
2023/05/08 03:25:29;;;;;;;6.60;3.72;;;;;;;;;;5058025;28;20094;-82
2023/05/08 03:27:56;;;;;;;6.20;4.07;;;;;;;;;;5036879;28;20048;-81
2023/05/08 03:30:21;;;;;;;7.25;4.53;;;;;;;;;;5058061;28;20423;-82
2023/05/08 03:32:47;;;;;;;7.28;4.50;;;;;;;;;;5050598;28;20043;-82
2023/05/08 03:35:13;;;;;;;6.80;4.60;;;;;;;;;;5042704;28;20057;-82
2023/05/08 03:37:39;;;;;;;6.93;4.32;;;;;;;;;;5038890;28;20532;-82
2023/05/08 03:40:05;;;;;;;8.05;4.50;;;;;;;;;;5042517;28;20037;-82
2023/05/08 03:42:31;;;;;;;7.75;4.50;;;;;;;;;;5042197;28;20040;-82
2023/05/08 03:44:57;;;;;;;7.53;4.50;;;;;;;;;;5056487;28;20032;-80
2023/05/08 03:47:24;;;;;;;6.72;4.00;;;;;;;;;;5050986;28;20039;-79
2023/05/08 03:49:50;;;;;;;8.00;4.35;;;;;;;;;;5052774;28;20452;-80
2023/05/08 03:52:15;;;;;;;7.88;4.60;;;;;;;;;;5049482;28;20036;-81
2023/05/08 03:54:41;;;;;;;7.07;4.40;;;;;;;;;;5047745;28;20071;-80
2023/05/08 03:57:08;;;;;;;6.68;4.03;;;;;;;;;;5047689;28;20044;-80
2023/05/08 03:59:48;;;;;;;5.97;3.80;;;;;;;;;;5055733;28;20557;-80
2023/05/08 04:02:23;;;;;;;7.63;4.43;;;;;;;;;;5040856;28;20503;-81
2023/05/08 04:04:54;;;;;;;7.32;4.68;;;;;;;;;;5044709;28;20107;-80
2023/05/08 04:07:34;;;;;;;8.60;4.60;;;;;;;;;;5048131;28;20040;-79
2023/05/08 04:10:11;;;;;;;8.38;4.82;;;;;;;;;;5048912;28;20656;-80
2023/05/08 04:12:47;;;;;;;8.90;4.72;;;;;;;;;;5053671;28;20151;-79
2023/05/08 04:15:16;;;;;;;6.50;4.50;;;;;;;;;;5049056;28;20578;-81
2023/05/08 04:17:47;;;;;;;8.48;4.50;;;;;;;;;;5050232;28;20488;-82
2023/05/08 04:20:16;;;;;;;8.00;4.20;;;;;;;;;;5057602;28;20124;-83
2023/05/08 04:22:42;;;;;;;7.85;4.28;;;;;;;;;;5034046;28;20052;-84
2023/05/08 04:25:08;;;;;;;6.78;4.13;;;;;;;;;;5034818;28;20033;-83
2023/05/08 04:27:34;;;;;;;8.00;4.38;;;;;;;;;;5049066;28;20045;-83
2023/05/08 04:30:00;;;;;;;8.00;4.60;;;;;;;;;;5036611;28;20139;-83
2023/05/08 04:32:26;;;;;;;9.00;4.43;;;;;;;;;;5047355;28;20580;-82
2023/05/08 04:34:52;;;;;;;8.18;4.60;;;;;;;;;;5058480;28;20115;-83
2023/05/08 04:37:35;;;;;;;11.52;4.03;;;;;;;;;;5047692;28;20132;-83
2023/05/08 04:40:03;;;;;;;6.78;4.20;;;;;;;;;;5050471;28;20044;-80
2023/05/08 04:42:28;;;;;;;9.07;4.15;;;;;;;;;;5050277;28;20041;-81
2023/05/08 04:44:54;;;;;;;7.28;3.75;;;;;;;;;;5058928;28;20033;-80
2023/05/08 04:47:20;;;;;;;6.38;3.47;;;;;;;;;;5050725;28;20032;-81
2023/05/08 04:49:45;;;;;;;6.75;3.72;;;;;;;;;;5048282;28;20044;-81
2023/05/08 04:52:10;;;;;;;5.60;3.45;;;;;;;;;;5049694;28;20032;-81
2023/05/08 04:54:36;;;;;;;5.30;3.17;;;;;;;;;;5050624;28;20038;-82
2023/05/08 04:57:01;;;;;;;6.18;3.30;;;;;;;;;;5050613;28;20044;-80
2023/05/08 04:59:28;;;;;;;6.95;3.65;;;;;;;;;;5054781;28;20110;-80
2023/05/08 05:01:54;;;;;;;5.60;2.85;;;;;;;;;;5050031;28;20033;-79
2023/05/08 05:04:20;;;;;;;5.60;3.28;;;;;;;;;;5052282;28;20102;-80
2023/05/08 05:06:46;;;;;;;6.43;3.60;;;;;;;;;;5054584;28;20040;-82
2023/05/08 05:09:11;;;;;;;5.70;3.22;;;;;;;;;;5053284;28;20377;-82
2023/05/08 05:11:36;;;;;;;6.22;3.50;;;;;;;;;;5044075;28;20044;-82
2023/05/08 05:14:02;;;;;;;6.38;3.38;;;;;;;;;;5065842;28;20025;-81
2023/05/08 05:16:27;;;;;;;5.72;3.33;;;;;;;;;;5051096;28;20546;-80
2023/05/08 05:18:53;;;;;;;8.93;3.65;;;;;;;;;;5050003;28;20052;-79
2023/05/08 05:21:18;;;;;;;8.57;3.33;;;;;;;;;;5053704;28;20041;-77
2023/05/08 05:23:44;;;;;;;6.65;3.28;;;;;;;;;;5038988;28;20040;-78
2023/05/08 05:26:10;;;;;;;6.40;3.35;;;;;;;;;;5038248;28;20042;-77
2023/05/08 05:28:35;;;;;;;4.80;2.88;;;;;;;;;;5046212;28;20086;-77
2023/05/08 05:31:00;;;;;;;5.60;3.13;;;;;;;;;;5038129;28;20486;-79
2023/05/08 05:33:26;;;;;;;5.40;3.10;;;;;;;;;;5050922;28;20090;-80
2023/05/08 05:35:51;;;;;;;5.93;3.28;;;;;;;;;;5049847;28;20035;-79
2023/05/08 05:38:17;;;;;;;6.43;3.17;;;;;;;;;;5052318;28;20698;-79
2023/05/08 05:40:42;;;;;;;5.63;3.05;;;;;;;;;;5052993;28;21292;-81
2023/05/08 05:43:08;;;;;;;6.00;2.90;;;;;;;;;;5051298;28;20479;-79
2023/05/08 05:45:35;;;;;;;8.18;3.28;;;;;;;;;;5053305;28;20155;-80
2023/05/08 05:48:01;;;;;;;6.03;3.30;;;;;;;;;;5054024;28;20036;-79
2023/05/08 05:50:27;;;;;;;5.80;2.83;;;;;;;;;;5051300;28;20597;-79
2023/05/08 05:52:53;;;;;;;7.63;3.33;;;;;;;;;;5043358;28;20038;-80
2023/05/08 05:55:18;;;;;;;5.85;3.10;;;;;;;;;;5048909;28;20029;-80
2023/05/08 05:57:44;;;;;;;5.03;2.95;;;;;;;;;;5051839;28;20036;-80
2023/05/08 06:00:10;;;;;;;5.13;2.80;;;;;;;;;;5050745;28;20497;-82
2023/05/08 06:02:36;;;;;;;5.47;2.80;;;;;;;;;;5052501;28;20062;-82
2023/05/08 06:05:01;;;;;;;4.65;2.92;;;;;;;;;;5055244;28;20029;-80
2023/05/08 06:07:27;;;;;;;5.35;3.03;;;;;;;;;;5033616;28;20036;-80
2023/05/08 06:09:52;;;;;;;4.35;2.40;;;;;;;;;;5044765;28;20040;-80
2023/05/08 06:12:18;;;;;;;5.00;2.55;;;;;;;;;;5055675;28;20072;-80
2023/05/08 06:14:43;;;;;;;5.38;2.63;;;;;;;;;;5049768;28;20052;-80
2023/05/08 06:17:09;;;;;;;4.53;2.63;;;;;;;;;;5048655;28;20416;-81
2023/05/08 06:19:34;;;;;;;8.23;3.40;;;;;;;;;;5053867;28;20123;-81
2023/05/08 06:22:00;;;;;;;4.22;2.28;;;;;;;;;;5053597;28;20043;-81
2023/05/08 06:24:26;;;;;;;6.05;2.28;;;;;;;;;;5038115;28;20224;-80
2023/05/08 06:26:51;;;;;;;4.85;2.40;;;;;;;;;;5051398;28;20921;-81
2023/05/08 06:29:17;;;;;;;4.40;2.00;;;;;;;;;;5036347;28;20039;-80
2023/05/08 06:31:42;;;;;;;3.42;1.83;;;;;;;;;;5042582;28;20056;-81
2023/05/08 06:34:08;;;;;;;5.25;2.30;;;;;;;;;;5051154;28;20045;-80
2023/05/08 06:36:33;;;;;;;4.80;2.08;;;;;;;;;;5051607;28;20045;-81
2023/05/08 06:38:58;;;;;;;3.88;2.28;;;;;;;;;;5051949;28;20400;-81
2023/05/08 06:41:25;;;;;;;4.85;2.17;;;;;;;;;;5052389;28;20036;-80
2023/05/08 06:43:50;;;;;;;4.22;2.15;;;;;;;;;;5038901;28;20040;-81
2023/05/08 06:46:15;;;;;;;4.70;2.10;;;;;;;;;;5055113;28;20025;-80
2023/05/08 06:48:41;;;;;;;7.72;2.00;;;;;;;;;;5058879;28;20366;-81
2023/05/08 06:51:06;;;;;;;4.45;2.13;;;;;;;;;;5035970;28;20033;-81
2023/05/08 06:53:31;;;;;;;3.80;2.03;;;;;;;;;;5050995;28;20047;-80
2023/05/08 06:55:57;;;;;;;3.88;2.13;;;;;;;;;;5051257;28;20070;-80
2023/05/08 06:58:23;;;;;;;3.92;2.10;;;;;;;;;;5049199;28;20064;-81
2023/05/08 07:00:48;;;;;;;4.93;1.90;;;;;;;;;;5052922;28;20032;-81
2023/05/08 07:03:14;;;;;;;3.70;1.70;;;;;;;;;;5050899;28;20032;-81
2023/05/08 07:05:39;;;;;;;3.38;1.98;;;;;;;;;;5051740;28;20507;-80
2023/05/08 07:08:05;;;;;;;4.82;1.83;;;;;;;;;;5051554;28;20460;-81
2023/05/08 07:10:30;;;;;;;4.20;1.67;;;;;;;;;;5052862;28;20732;-81
2023/05/08 07:12:55;;;;;;;3.95;1.75;;;;;;;;;;5042378;28;20912;-82
2023/05/08 07:15:21;;;;;;;3.83;1.60;;;;;;;;;;5056065;28;20434;-82
2023/05/08 07:17:46;;;;;;;4.07;2.00;;;;;;;;;;5042657;28;20041;-80
2023/05/08 07:20:12;;;;;;;3.33;1.48;;;;;;;;;;5049463;28;20043;-81
2023/05/08 07:22:37;;;;;;;3.67;1.45;;;;;;;;;;5060126;28;20063;-80
2023/05/08 07:25:03;;;;;;;5.20;1.65;;;;;;;;;;5049976;28;20033;-82
2023/05/08 07:27:29;;;;;;;3.38;1.58;;;;;;;;;;5053195;28;20076;-81
2023/05/08 07:29:56;;;;;;;3.15;1.58;;;;;;;;;;5051100;28;20432;-80
2023/05/08 07:32:21;;;;;;;4.93;1.67;;;;;;;;;;5048475;28;20040;-81
2023/05/08 07:34:47;;;;;;;3.70;1.80;;;;;;;;;;5049382;28;20033;-80
2023/05/08 07:37:12;;;;;;;3.80;1.38;;;;;;;;;;5052626;28;20041;-81
2023/05/08 07:39:38;;;;;;;3.00;1.60;;;;;;;;;;5049579;28;20045;-80
2023/05/08 07:42:03;;;;;;;5.03;1.80;;;;;;;;;;5047630;28;20061;-81
2023/05/08 07:44:31;;;;;;;3.95;1.83;;;;;;;;;;5032769;28;20124;-81
2023/05/08 07:46:57;;;;;;;;;;;;;;;;;;5048949;28;20051;-81
2023/05/08 07:49:22;;;;;;;4.15;1.80;;;;;;;;;;5052437;28;19935;-80
2023/05/08 07:51:47;;;;;;;3.78;1.40;;;;;;;;;;5050670;28;20889;-81
2023/05/08 07:54:13;;;;;;;2.80;1.40;;;;;;;;;;5050172;28;20037;-81
2023/05/08 07:56:38;;;;;;;8.43;4.10;;;;;;;;;;5032980;28;20141;-81
2023/05/08 07:59:04;;;;;;;3.83;1.45;;;;;;;;;;5051337;28;20032;-80
2023/05/08 08:01:29;;;;;;;4.40;1.58;;;;;;;;;;5050045;28;20120;-80
2023/05/08 08:03:54;;;;;;;3.50;1.33;;;;;;;;;;5051313;28;20089;-80
2023/05/08 08:06:20;;;;;;;3.45;1.67;;;;;;;;;;5049255;28;20170;-81
2023/05/08 08:08:48;;;;;;;2.83;1.40;;;;;;;;;;5051189;28;20396;-81
2023/05/08 08:11:14;;;;;;;3.35;1.73;;;;;;;;;;5047791;28;20090;-81
2023/05/08 08:13:39;;;;;;;2.63;1.48;;;;;;;;;;5036155;28;20138;-81
2023/05/08 08:16:05;;;;;;;3.45;1.30;;;;;;;;;;5058610;28;20033;-80
2023/05/08 08:18:35;;;;;;;3.17;1.50;;;;;;;;;;5047902;28;20048;-81
2023/05/08 08:21:00;;;;;;;6.78;1.27;;;;;;;;;;5048914;28;20106;-81
2023/05/08 08:23:26;;;;;;;5.68;2.28;;;;;;;;;;5042534;28;20102;-81
2023/05/08 08:25:52;;;;;;;3.47;1.40;;;;;;;;;;5048088;28;20589;-81
2023/05/08 08:28:18;;;;;;;3.67;1.20;;;;;;;;;;5038014;28;20044;-82
2023/05/08 08:30:43;;;;;;;2.90;1.52;;;;;;;;;;5034225;28;20036;-82
2023/05/08 08:33:09;;;;;;;3.38;1.50;;;;;;;;;;5054936;28;20029;-82
2023/05/08 08:35:34;;;;;;;6.68;1.40;;;;;;;;;;5044982;28;20033;-81
2023/05/08 08:38:00;;;;;;;6.53;1.42;;;;;;;;;;5056129;28;20029;-81
2023/05/08 08:40:25;;;;;;;2.55;1.23;;;;;;;;;;5052074;28;20060;-81
2023/05/08 08:42:50;;;;;;;3.33;1.30;;;;;;;;;;5054536;28;20033;-82
2023/05/08 08:45:16;;;;;;;4.57;1.20;;;;;;;;;;5054568;28;20500;-81
2023/05/08 08:47:43;;;;;;;4.00;1.50;;;;;;;;;;5037805;28;20052;-82
2023/05/08 08:50:09;;;;;;;3.17;1.27;;;;;;;;;;5036496;28;20520;-82
2023/05/08 08:52:54;;;;;;;3.00;1.10;;;;;;;;;;5035470;28;20041;-82
2023/05/08 08:55:22;;;;;;;2.92;1.15;;;;;;;;;;5061958;28;20040;-81
2023/05/08 08:58:05;;;;;;;2.72;1.33;;;;;;;;;;5052782;28;20048;-82
2023/05/08 09:00:31;;;;;;;3.10;1.20;;;;;;;;;;5044500;28;20044;-82
2023/05/08 09:02:57;;;;;;;2.97;1.10;;;;;;;;;;5054733;28;20047;-81
2023/05/08 09:05:23;;;;;;;4.00;1.27;;;;;;;;;;5053845;28;20041;-81
2023/05/08 09:07:48;;;;;;;3.08;1.10;;;;;;;;;;5056043;28;20542;-82
2023/05/08 09:10:14;;;;;;;4.72;1.20;;;;;;;;;;5052810;28;20044;-81
2023/05/08 09:12:40;;;;;;;2.90;1.23;;;;;;;;;;5053950;28;20032;-81
2023/05/08 09:15:06;;;;;;;4.65;1.20;;;;;;;;;;5052054;28;20037;-82
2023/05/08 09:17:31;;;;;;;4.28;1.70;;;;;;;;;;5054258;28;20040;-82
2023/05/08 09:19:57;;;;;;;3.78;1.30;;;;;;;;;;5051728;28;20045;-81
2023/05/08 09:22:23;;;;;;;3.08;1.23;;;;;;;;;;5055848;28;20042;-82
2023/05/08 09:24:57;;;;;;;2.25;1.00;;;;;;;;;;5043665;28;20060;-82
2023/05/08 09:27:27;;;;;;;3.83;1.23;;;;;;;;;;5050708;28;20045;-82
2023/05/08 09:30:07;;;;;;;2.28;1.10;;;;;;;;;;5052044;28;20498;-82
2023/05/08 09:32:34;;;;;;;3.78;1.15;;;;;;;;;;5037492;28;20148;-81
2023/05/08 09:35:00;;;;;;;3.53;1.40;;;;;;;;;;5059918;28;20037;-82
2023/05/08 09:37:26;;;;;;;2.63;1.23;;;;;;;;;;5051673;28;20044;-81
2023/05/08 09:39:52;;;;;;;4.47;1.40;;;;;;;;;;5069467;28;20036;-82
2023/05/08 09:42:17;;;;;;;2.95;1.15;;;;;;;;;;5052040;28;20033;-82
2023/05/08 09:44:51;;;;;;;2.40;1.00;;;;;;;;;;5053597;28;20044;-82
2023/05/08 09:47:21;;;;;;;3.60;1.13;;;;;;;;;;5052452;28;20037;-82
2023/05/08 09:50:03;;;;;;;3.35;1.08;;;;;;;;;;5051930;28;20028;-82
2023/05/08 09:52:30;;;;;;;3.08;1.02;;;;;;;;;;5050544;28;20496;-81
2023/05/08 09:55:09;;;;;;;2.90;1.00;;;;;;;;;;5037880;28;20061;-81
2023/05/08 09:57:39;;;;;;;2.70;1.15;;;;;;;;;;5061087;28;20090;-82
2023/05/08 10:00:06;;;;;;;2.88;1.15;;;;;;;;;;5041074;28;20387;-82
2023/05/08 10:02:32;;;;;;;2.60;1.10;;;;;;;;;;5049145;28;20461;-81
2023/05/08 10:04:58;;;;;;;2.60;1.15;;;;;;;;;;5051054;28;20044;-81
2023/05/08 10:07:30;;;;;;;3.17;1.00;;;;;;;;;;5060071;28;20032;-82
2023/05/08 10:09:57;;;;;;;3.08;1.30;;;;;;;;;;5061199;28;20044;-82
2023/05/08 10:12:22;;;;;;;5.78;1.40;;;;;;;;;;5038685;28;20116;-82
2023/05/08 10:14:48;;;;;;;1.92;0.82;;;;;;;;;;5052057;28;20040;-82
2023/05/08 10:17:14;;;;;;;3.13;1.20;;;;;;;;;;5051537;28;20033;-81
2023/05/08 10:19:43;;;;;;;5.40;1.35;;;;;;;;;;5054250;28;20048;-82
2023/05/08 10:22:10;;;;;;;2.20;0.90;;;;;;;;;;5051596;28;20593;-82
2023/05/08 10:24:38;;;;;;;2.80;1.10;;;;;;;;;;5050198;28;20119;-81
2023/05/08 10:27:30;;;;;;;1.92;0.93;;;;;;;;;;5049438;28;20033;-82
2023/05/08 10:30:00;;;;;;;3.05;1.05;;;;;;;;;;5037024;28;20090;-82
2023/05/08 10:32:27;;;;;;;3.15;1.10;;;;;;;;;;5051233;28;20041;-82
2023/05/08 10:34:58;;;;;;;1.92;1.00;;;;;;;;;;5051258;28;20563;-82
2023/05/08 10:37:23;;;;;;;1.95;0.80;;;;;;;;;;5035226;28;20378;-82
2023/05/08 10:39:49;;;;;;;2.42;1.00;;;;;;;;;;5041493;28;20051;-82
2023/05/08 10:42:15;;;;;;;3.30;1.20;;;;;;;;;;5052180;28;20029;-81
2023/05/08 10:44:40;;;;;;;3.67;1.30;;;;;;;;;;5054820;28;20059;-83
2023/05/08 10:47:35;;;;;;;3.25;1.25;;;;;;;;;;5053025;28;20033;-82
2023/05/08 10:50:17;;;;;;;2.40;0.90;;;;;;;;;;5059918;28;20041;-82
2023/05/08 10:52:53;;;;;;;2.10;0.90;;;;;;;;;;5060594;28;20029;-82
2023/05/08 10:55:23;;;;;;;2.70;1.10;;;;;;;;;;5048828;28;20837;-82
2023/05/08 10:58:14;;;;;;;2.80;1.02;;;;;;;;;;5067188;28;20032;-82
2023/05/08 11:00:52;;;;;;;3.70;1.20;;;;;;;;;;5059528;28;20194;-82
2023/05/08 11:03:23;;;;;;;3.95;1.33;;;;;;;;;;5067402;28;20082;-82
2023/05/08 11:05:50;;;;;;;2.50;1.10;;;;;;;;;;5048983;28;20446;-82
2023/05/08 11:08:23;;;;;;;3.40;1.02;;;;;;;;;;5037193;28;20035;-82
2023/05/08 11:11:00;;;;;;;3.03;1.10;;;;;;;;;;5048664;28;20036;-83
2023/05/08 11:13:42;;;;;;;2.60;1.15;;;;;;;;;;5049091;28;20078;-82
2023/05/08 11:16:10;;;;;;;3.17;1.02;;;;;;;;;;5050828;28;20029;-83
2023/05/08 11:18:36;;;;;;;3.70;0.90;;;;;;;;;;5051324;28;20068;-82
2023/05/08 11:21:03;;;;;;;2.42;0.90;;;;;;;;;;5049129;28;20033;-83
2023/05/08 11:23:30;;;;;;;1.83;0.80;;;;;;;;;;5048068;28;20036;-82
2023/05/08 11:26:02;;;;;;;3.65;0.85;;;;;;;;;;5040285;28;20572;-81
2023/05/08 11:28:32;;;;;;;2.50;1.05;;;;;;;;;;5049258;28;20131;-81
2023/05/08 11:31:04;;;;;;;4.28;1.75;;;;;;;;;;5052775;28;20039;-81
2023/05/08 11:33:32;;;;;;;2.35;0.90;;;;;;;;;;5050024;28;20053;-80
2023/05/08 11:35:58;;;;;;;;;;;;;;;;;;5034753;28;20043;-82
2023/05/08 11:38:24;;;;;;;2.58;1.10;;;;;;;;;;5053390;28;20443;-83
2023/05/08 11:40:58;;;;;;;2.40;0.87;;;;;;;;;;5058478;28;20033;-83
2023/05/08 11:43:30;;;;;;;3.78;0.90;;;;;;;;;;5067786;28;20101;-83
2023/05/08 11:45:59;;;;;;;2.72;1.00;;;;;;;;;;5058104;28;20033;-82
2023/05/08 11:48:25;;;;;;;2.00;0.80;;;;;;;;;;5059399;28;20128;-81
2023/05/08 11:50:50;;;;;;;2.78;1.00;;;;;;;;;;5049327;28;20038;-82
2023/05/08 11:53:16;;;;;;;3.25;0.98;;;;;;;;;;5051612;28;20033;-83
2023/05/08 11:55:41;;;;;;;5.55;1.00;;;;;;;;;;5050757;28;20506;-82
2023/05/08 11:58:13;;;;;;;2.92;1.10;;;;;;;;;;5049702;28;20033;-82
2023/05/08 12:00:40;;;;;;;2.90;1.30;;;;;;;;;;5031875;28;20072;-82
2023/05/08 12:03:06;;;;;;;3.05;1.00;;;;;;;;;;5034718;28;20761;-82
2023/05/08 12:05:31;;;;;;;3.22;1.10;;;;;;;;;;5036152;28;20036;-82
2023/05/08 12:07:58;;;;;;;3.42;1.20;;;;;;;;;;5050723;28;20344;-81
2023/05/08 12:10:23;;;;;;;3.60;1.30;;;;;;;;;;5050021;28;20100;-81
2023/05/08 12:12:49;;;;;;;3.38;1.30;;;;;;;;;;5051775;28;20115;-82
2023/05/08 12:15:14;;;;;;;2.65;1.02;;;;;;;;;;5056839;28;20151;-81
2023/05/08 12:17:40;;;;;;;2.50;1.10;;;;;;;;;;5040297;28;20523;-81
2023/05/08 12:20:16;;;;;;;2.63;1.08;;;;;;;;;;5031188;28;20037;-81
2023/05/08 12:22:49;;;;;;;3.78;1.23;;;;;;;;;;5051702;28;20393;-81
2023/05/08 12:25:15;;;;;;;3.53;1.00;;;;;;;;;;5058649;28;20041;-81
2023/05/08 12:27:41;;;;;;;2.58;1.10;;;;;;;;;;5059401;28;20068;-82
2023/05/08 12:30:09;;;;;;;3.20;1.05;;;;;;;;;;5036848;28;20530;-81
2023/05/08 12:32:36;;;;;;;3.22;1.17;;;;;;;;;;5051869;28;20098;-82
2023/05/08 12:35:01;;;;;;;2.47;1.10;;;;;;;;;;5049381;28;20029;-81
2023/05/08 12:37:27;;;;;;;3.60;0.90;;;;;;;;;;5036957;28;20071;-81
2023/05/08 12:39:52;;;;;;;3.65;1.00;;;;;;;;;;5040712;28;20040;-82
2023/05/08 12:42:18;;;;;;;2.33;0.90;;;;;;;;;;5048718;28;20041;-82
2023/05/08 12:44:49;;;;;;;2.05;1.00;;;;;;;;;;5058137;28;20033;-81
2023/05/08 12:47:17;;;;;;;3.38;0.95;;;;;;;;;;5046889;28;20407;-81
2023/05/08 12:49:43;;;;;;;2.47;0.93;;;;;;;;;;5047502;28;20040;-82
2023/05/08 12:52:12;;;;;;;2.17;1.08;;;;;;;;;;5049673;28;20846;-81
2023/05/08 12:54:48;;;;;;;2.92;1.17;;;;;;;;;;5054792;28;20533;-81
2023/05/08 12:57:15;;;;;;;3.92;1.17;;;;;;;;;;5047364;28;20028;-82
2023/05/08 12:59:42;;;;;;;4.97;1.27;;;;;;;;;;5051521;28;20056;-81
2023/05/08 13:02:18;;;;;;;2.58;1.10;;;;;;;;;;5048606;28;20539;-81
2023/05/08 13:04:44;;;;;;;6.18;2.08;;;;;;;;;;5049607;28;20041;-82
2023/05/08 13:07:10;;;;;;;2.88;1.00;;;;;;;;;;5052150;28;20082;-81
2023/05/08 13:09:36;;;;;;;4.47;1.40;;;;;;;;;;5050236;28;20036;-81
2023/05/08 13:12:01;;;;;;;3.70;1.15;;;;;;;;;;5049232;28;20032;-80
2023/05/08 13:14:27;;;;;;;2.78;1.00;;;;;;;;;;5048372;28;20115;-81
2023/05/08 13:16:52;;;;;;;4.78;1.38;;;;;;;;;;5054708;28;20477;-82
2023/05/08 13:19:17;;;;;;;5.70;1.20;;;;;;;;;;5052357;28;20043;-82
2023/05/08 13:21:46;;;;;;;2.88;1.10;;;;;;;;;;5052624;28;20032;-81
2023/05/08 13:24:13;;;;;;;2.45;1.10;;;;;;;;;;5052260;28;20041;-82
2023/05/08 13:26:38;;;;;;;5.60;1.55;;;;;;;;;;5043987;28;20032;-81
2023/05/08 13:29:03;;;;;;;3.75;1.00;;;;;;;;;;5052315;28;20407;-81
2023/05/08 13:31:29;;;;;;;5.13;1.58;;;;;;;;;;5052795;28;20051;-81
2023/05/08 13:33:54;;;;;;;3.95;1.05;;;;;;;;;;5054579;28;20033;-81
2023/05/08 13:36:20;;;;;;;3.45;1.30;;;;;;;;;;5035548;28;20119;-82
2023/05/08 13:38:45;;;;;;;2.55;0.80;;;;;;;;;;5039561;28;20151;-81
2023/05/08 13:41:10;;;;;;;2.45;1.05;;;;;;;;;;5053227;28;20040;-81
2023/05/08 13:43:39;;;;;;;2.53;1.00;;;;;;;;;;5052507;28;20040;-82
2023/05/08 13:46:04;;;;;;;1.75;0.80;;;;;;;;;;5050642;28;20029;-83
2023/05/08 13:48:29;;;;;;;3.05;0.82;;;;;;;;;;5057262;28;20037;-80
2023/05/08 13:50:55;;;;;;;2.08;0.80;;;;;;;;;;5053357;28;20043;-81
2023/05/08 13:53:20;;;;;;;2.45;0.90;;;;;;;;;;5060928;28;20039;-81
2023/05/08 13:55:45;;;;;;;3.05;0.90;;;;;;;;;;5053159;28;20040;-82
2023/05/08 13:58:11;;;;;;;2.22;0.88;;;;;;;;;;5052150;28;20119;-82
2023/05/08 14:00:37;;;;;;;1.88;0.80;;;;;;;;;;5037885;28;20528;-83
2023/05/08 14:03:02;;;;;;;2.95;0.90;;;;;;;;;;5052518;28;20440;-82
2023/05/08 14:05:28;;;;;;;2.58;1.00;;;;;;;;;;5036051;28;20064;-80
2023/05/08 14:07:53;;;;;;;2.30;0.82;;;;;;;;;;5051583;28;20106;-81
2023/05/08 14:10:22;;;;;;;2.30;0.85;;;;;;;;;;5042875;28;20037;-81
2023/05/08 14:12:48;;;;;;;1.88;0.80;;;;;;;;;;5060441;28;20040;-82
2023/05/08 14:15:13;;;;;;;2.40;1.10;;;;;;;;;;5033370;28;20036;-80
2023/05/08 14:17:38;;;;;;;2.33;0.93;;;;;;;;;;5053513;28;20033;-82
2023/05/08 14:20:05;;;;;;;3.40;1.00;;;;;;;;;;5052430;28;20041;-83
2023/05/08 14:22:30;;;;;;;2.10;0.80;;;;;;;;;;5052578;28;20505;-82
2023/05/08 14:24:56;;;;;;;7.55;1.20;;;;;;;;;;5051946;28;20039;-81
2023/05/08 14:27:21;;;;;;;2.78;0.95;;;;;;;;;;5032327;28;20400;-81
2023/05/08 14:29:47;;;;;;;2.25;1.00;;;;;;;;;;5050565;28;20389;-82
2023/05/08 14:32:12;;;;;;;1.90;0.93;;;;;;;;;;5049973;28;20037;-82
2023/05/08 14:34:38;;;;;;;2.67;1.13;;;;;;;;;;5049096;28;20039;-82
2023/05/08 14:37:03;;;;;;;2.42;1.00;;;;;;;;;;5037234;28;20036;-81
2023/05/08 14:39:28;;;;;;;2.90;1.15;;;;;;;;;;5050262;28;20127;-82
2023/05/08 14:41:57;;;;;;;3.00;1.23;;;;;;;;;;5050751;28;20033;-82
2023/05/08 14:44:22;;;;;;;3.00;1.05;;;;;;;;;;5050350;28;20122;-82
2023/05/08 14:46:47;;;;;;;2.00;0.80;;;;;;;;;;5047712;28;20040;-82
2023/05/08 14:49:13;;;;;;;2.40;1.10;;;;;;;;;;5051788;28;20020;-83